createdAt,value
2022-10-13T00:00:15.700Z,84.88
2022-10-13T00:03:03.816Z,84.81
2022-10-13T00:05:31.961Z,84.58
2022-10-13T00:08:00.579Z,84.46
2022-10-13T00:10:31.547Z,84.30
2022-10-13T00:12:59.637Z,84.32
2022-10-13T00:15:27.832Z,84.16
2022-10-13T00:18:39.746Z,84.05
2022-10-13T00:25:14.370Z,83.93
2022-10-13T00:27:43.113Z,84.11
2022-10-13T00:30:11.511Z,84.12
2022-10-13T00:33:26.345Z,84.18
2022-10-13T00:35:54.458Z,84.40
2022-10-13T00:47:03.267Z,85.33
2022-10-13T00:49:32.197Z,85.56
2022-10-13T00:52:00.362Z,85.55
2022-10-13T00:54:29.854Z,85.52
2022-10-13T00:56:58.092Z,85.79
2022-10-13T00:59:29.259Z,85.75
2022-10-13T01:01:59.452Z,86.10
2022-10-13T01:04:32.247Z,86.36
2022-10-13T01:07:00.582Z,86.27
2022-10-13T01:09:36.099Z,86.30
2022-10-13T01:12:16.812Z,86.25
2022-10-13T01:14:50.905Z,86.45
2022-10-13T01:17:19.229Z,86.30
2022-10-13T01:19:48.108Z,86.44
2022-10-13T01:22:31.122Z,86.75
2022-10-13T01:25:24.646Z,86.80
2022-10-13T01:28:13.034Z,86.59
2022-10-13T01:30:46.006Z,86.97
2022-10-13T01:34:00.404Z,86.76
2022-10-13T01:36:38.830Z,86.89
2022-10-13T01:39:16.734Z,86.96
2022-10-13T01:41:49.065Z,86.74
2022-10-13T01:44:37.406Z,86.67
2022-10-13T01:47:06.316Z,86.48
2022-10-13T01:49:35.584Z,86.30
2022-10-13T01:52:06.645Z,86.38
2022-10-13T01:54:34.921Z,86.36
2022-10-13T01:57:03.161Z,86.37
2022-10-13T01:59:34.063Z,86.21
2022-10-13T02:02:09.111Z,86.19
2022-10-13T02:04:54.143Z,86.21
2022-10-13T02:07:22.202Z,86.03
2022-10-13T02:10:13.416Z,86.00
2022-10-13T02:13:14.182Z,85.71
2022-10-13T02:15:47.900Z,85.77
2022-10-13T02:18:17.338Z,85.85
2022-10-13T02:20:46.163Z,85.87
2022-10-13T02:23:16.033Z,85.92
2022-10-13T02:25:44.892Z,86.24
2022-10-13T02:28:13.599Z,86.08
2022-10-13T02:30:45.954Z,86.12
2022-10-13T02:33:15.114Z,86.07
2022-10-13T02:39:42.519Z,85.86
2022-10-13T02:46:32.763Z,85.90
2022-10-13T02:49:00.900Z,85.84
2022-10-13T02:51:29.777Z,85.82
2022-10-13T02:58:29.779Z,86.64
2022-10-13T03:02:26.841Z,86.79
2022-10-13T03:04:56.246Z,86.92
2022-10-13T03:07:24.577Z,86.96
2022-10-13T03:09:53.022Z,87.17
2022-10-13T03:12:22.026Z,87.29
2022-10-13T03:14:51.505Z,87.40
2022-10-13T03:17:19.928Z,87.41
2022-10-13T03:19:48.438Z,87.44
2022-10-13T03:22:18.588Z,87.69
2022-10-13T03:24:47.017Z,87.79
2022-10-13T03:27:15.878Z,88.13
2022-10-13T03:29:43.964Z,88.15
2022-10-13T03:32:12.156Z,88.28
2022-10-13T03:34:40.283Z,88.20
2022-10-13T03:37:08.752Z,88.22
2022-10-13T03:39:52.635Z,88.47
2022-10-13T03:42:21.983Z,88.59
2022-10-13T03:49:26.526Z,88.19
2022-10-13T03:51:54.640Z,88.03
2022-10-13T03:54:22.872Z,87.97
2022-10-13T03:56:53.062Z,87.97
2022-10-13T03:59:21.230Z,87.75
2022-10-13T04:01:49.420Z,87.62
2022-10-13T04:04:17.605Z,87.46
2022-10-13T04:06:47.227Z,87.26
2022-10-13T04:09:15.295Z,87.46
2022-10-13T04:11:43.534Z,87.52
2022-10-13T04:14:11.741Z,87.81
2022-10-13T04:16:40.616Z,88.07
2022-10-13T04:19:11.758Z,88.32
2022-10-13T04:21:40.754Z,88.82
2022-10-13T04:24:11.781Z,88.60
2022-10-13T04:26:40.020Z,87.97
2022-10-13T04:29:09.318Z,88.11
2022-10-13T04:31:37.519Z,88.64
2022-10-13T04:34:05.772Z,88.43
2022-10-13T04:36:33.892Z,88.29
2022-10-13T04:39:02.038Z,88.30
2022-10-13T04:41:30.291Z,88.87
2022-10-13T04:43:59.321Z,88.85
2022-10-13T04:46:27.696Z,89.18
2022-10-13T04:48:57.644Z,89.20
2022-10-13T04:51:33.457Z,89.29
2022-10-13T04:54:02.280Z,89.08
2022-10-13T04:56:30.409Z,89.04
2022-10-13T04:59:08.364Z,89.32
2022-10-13T05:01:36.458Z,90.01
2022-10-13T05:04:07.590Z,89.44
2022-10-13T05:06:48.822Z,89.51
2022-10-13T05:09:26.072Z,89.53
2022-10-13T05:11:55.342Z,89.63
2022-10-13T05:14:23.631Z,89.57
2022-10-13T05:16:51.736Z,89.98
2022-10-13T05:19:20.511Z,89.37
2022-10-13T05:21:50.764Z,89.76
2022-10-13T05:24:20.990Z,89.48
2022-10-13T05:26:50.876Z,89.04
2022-10-13T05:29:19.077Z,89.19
2022-10-13T05:31:47.248Z,89.01
2022-10-13T05:34:15.350Z,89.35
2022-10-13T05:36:43.438Z,88.93
2022-10-13T05:39:11.585Z,88.68
2022-10-13T05:41:39.714Z,88.56
2022-10-13T05:44:14.871Z,88.51
2022-10-13T05:46:51.753Z,88.78
2022-10-13T05:49:20.005Z,88.89
2022-10-13T05:51:50.880Z,89.02
2022-10-13T05:54:25.530Z,89.37
2022-10-13T05:57:13.879Z,89.41
2022-10-13T05:59:45.308Z,89.08
2022-10-13T06:02:15.326Z,88.86
2022-10-13T06:04:46.024Z,88.81
2022-10-13T06:07:14.554Z,88.41
2022-10-13T06:09:43.297Z,88.53
2022-10-13T06:12:11.578Z,88.88
2022-10-13T06:14:39.988Z,88.95
2022-10-13T06:17:11.253Z,88.96
2022-10-13T06:28:59.944Z,89.33
2022-10-13T06:31:29.102Z,89.46
2022-10-13T06:33:58.064Z,89.31
2022-10-13T06:36:26.270Z,89.31
2022-10-13T06:43:59.270Z,89.21
2022-10-13T06:46:30.647Z,89.17
2022-10-13T06:48:59.379Z,88.86
2022-10-13T06:52:34.087Z,88.50
2022-10-13T06:55:02.174Z,88.22
2022-10-13T06:57:30.718Z,88.29
2022-10-13T07:00:30.939Z,88.65
2022-10-13T07:03:02.112Z,88.58
2022-10-13T07:05:38.011Z,88.44
2022-10-13T07:08:06.482Z,88.31
2022-10-13T07:10:34.703Z,88.37
2022-10-13T07:13:02.894Z,88.03
2022-10-13T07:15:32.100Z,87.86
2022-10-13T07:18:00.390Z,88.02
2022-10-13T07:20:29.657Z,87.97
2022-10-13T07:22:57.885Z,87.56
2022-10-13T07:25:27.539Z,87.54
2022-10-13T07:27:55.744Z,87.63
2022-10-13T07:30:23.896Z,87.50
2022-10-13T07:32:52.021Z,87.36
2022-10-13T07:35:20.233Z,87.35
2022-10-13T07:37:48.438Z,87.69
2022-10-13T07:40:16.592Z,87.76
2022-10-13T07:42:44.711Z,87.66
2022-10-13T07:45:12.809Z,87.35
2022-10-13T07:47:41.072Z,87.33
2022-10-13T07:50:10.405Z,87.35
2022-10-13T07:52:38.584Z,87.07
2022-10-13T07:55:07.004Z,86.90
2022-10-13T07:57:35.198Z,86.59
2022-10-13T08:00:03.806Z,86.53
2022-10-13T08:02:40.386Z,86.37
2022-10-13T08:05:08.610Z,86.30
2022-10-13T08:07:39.364Z,86.58
2022-10-13T08:10:08.318Z,86.55
2022-10-13T08:12:36.823Z,86.62
2022-10-13T08:15:07.942Z,86.96
2022-10-13T08:17:37.122Z,86.66
2022-10-13T08:20:05.821Z,86.53
2022-10-13T08:22:36.520Z,86.51
2022-10-13T08:25:04.924Z,86.48
2022-10-13T08:27:50.176Z,86.52
2022-10-13T08:30:19.508Z,86.29
2022-10-13T08:32:47.818Z,86.30
2022-10-13T08:35:16.085Z,86.40
2022-10-13T08:37:44.187Z,86.36
2022-10-13T08:40:15.104Z,86.23
2022-10-13T08:42:43.581Z,86.26
2022-10-13T08:45:39.379Z,86.61
2022-10-13T08:48:07.735Z,86.52
2022-10-13T08:50:39.404Z,86.68
2022-10-13T08:53:16.490Z,86.91
2022-10-13T08:55:50.338Z,87.00
2022-10-13T08:58:23.954Z,86.82
2022-10-13T09:01:11.198Z,86.62
2022-10-13T09:03:39.271Z,86.57
2022-10-13T09:06:07.459Z,87.25
2022-10-13T09:08:42.049Z,87.26
2022-10-13T09:11:11.800Z,86.97
2022-10-13T09:13:40.337Z,86.62
2022-10-13T09:16:08.542Z,86.61
2022-10-13T09:18:37.798Z,86.42
2022-10-13T09:21:23.043Z,86.56
2022-10-13T09:23:54.249Z,86.27
2022-10-13T09:26:25.883Z,86.06
2022-10-13T09:28:54.180Z,86.20
2022-10-13T09:31:28.500Z,86.06
2022-10-13T09:33:57.913Z,86.20
2022-10-13T09:36:26.443Z,86.03
2022-10-13T09:39:12.193Z,86.15
2022-10-13T09:41:41.987Z,86.28
2022-10-13T09:44:12.698Z,86.21
2022-10-13T09:46:49.023Z,85.86
2022-10-13T09:49:25.841Z,86.40
2022-10-13T09:51:59.286Z,86.08
2022-10-13T09:54:36.866Z,85.82
2022-10-13T09:57:37.868Z,85.99
2022-10-13T10:00:17.133Z,85.95
2022-10-13T10:03:08.400Z,85.79
2022-10-13T10:05:41.182Z,85.63
2022-10-13T10:08:33.947Z,85.48
2022-10-13T10:11:14.029Z,85.37
2022-10-13T10:13:44.320Z,85.02
2022-10-13T10:16:13.810Z,84.80
2022-10-13T10:18:41.933Z,84.68
2022-10-13T10:21:25.784Z,84.56
2022-10-13T10:24:03.142Z,84.56
2022-10-13T10:26:49.628Z,84.41
2022-10-13T10:29:22.485Z,84.10
2022-10-13T10:31:50.679Z,83.71
2022-10-13T10:34:37.569Z,83.33
2022-10-13T10:37:05.838Z,82.73
2022-10-13T10:39:40.494Z,83.16
2022-10-13T10:42:08.595Z,82.24
2022-10-13T10:44:39.305Z,81.25
2022-10-13T10:47:14.317Z,80.09
2022-10-13T10:49:43.024Z,80.04
2022-10-13T10:52:16.555Z,79.14
2022-10-13T10:55:02.970Z,79.39
2022-10-13T10:57:38.722Z,78.45
2022-10-13T11:00:13.745Z,78.62
2022-10-13T11:02:50.630Z,77.85
2022-10-13T11:05:18.947Z,78.99
2022-10-13T11:07:47.179Z,77.98
2022-10-13T11:10:18.295Z,78.29
2022-10-13T11:12:48.032Z,78.29
2022-10-13T11:15:23.581Z,78.38
2022-10-13T11:17:52.407Z,75.93
2022-10-13T11:20:20.739Z,76.38
2022-10-13T11:22:57.998Z,76.74
2022-10-13T11:25:45.058Z,77.39
2022-10-13T11:28:22.525Z,77.50
2022-10-13T11:30:52.139Z,77.86
2022-10-13T11:33:32.451Z,78.27
2022-10-13T11:36:19.390Z,77.42
2022-10-13T11:38:54.555Z,77.89
2022-10-13T11:41:27.301Z,77.07
2022-10-13T11:44:06.333Z,77.34
2022-10-13T11:46:52.706Z,77.06
2022-10-13T11:49:38.078Z,77.66
2022-10-13T11:52:30.371Z,77.76
2022-10-13T11:55:03.215Z,76.40
2022-10-13T11:57:33.014Z,76.45
2022-10-13T12:00:04.741Z,76.27
2022-10-13T12:02:49.879Z,76.83
2022-10-13T12:05:27.231Z,76.47
2022-10-13T12:07:57.480Z,75.58
2022-10-13T12:10:31.161Z,76.07
2022-10-13T12:13:01.616Z,76.29
2022-10-13T12:15:37.872Z,76.57
2022-10-13T12:18:22.269Z,76.74
2022-10-13T12:20:58.027Z,75.47
2022-10-13T12:23:26.928Z,75.33
2022-10-13T12:25:58.789Z,75.19
2022-10-13T12:28:31.049Z,74.70
2022-10-13T12:31:00.459Z,74.74
2022-10-13T12:33:39.011Z,75.60
2022-10-13T12:36:13.249Z,75.75
2022-10-13T12:38:44.395Z,75.57
2022-10-13T12:41:14.603Z,73.68
2022-10-13T12:43:43.074Z,74.13
2022-10-13T12:46:11.697Z,74.41
2022-10-13T12:48:40.512Z,74.01
2022-10-13T12:51:17.289Z,71.63
2022-10-13T12:53:46.938Z,71.93
2022-10-13T12:56:23.050Z,71.12
2022-10-13T12:58:51.226Z,70.07
2022-10-13T13:01:27.195Z,69.47
2022-10-13T13:03:57.290Z,68.86
2022-10-13T13:06:36.383Z,68.85
2022-10-13T13:09:08.337Z,69.08
2022-10-13T13:11:37.580Z,68.10
2022-10-13T13:14:33.446Z,69.29
2022-10-13T13:17:02.888Z,69.51
2022-10-13T13:19:33.038Z,68.87
2022-10-13T13:22:01.530Z,68.05
2022-10-13T13:24:39.714Z,67.12
2022-10-13T13:27:18.243Z,68.11
2022-10-13T13:29:47.215Z,68.67
2022-10-13T13:32:18.151Z,69.09
2022-10-13T13:34:48.556Z,69.84
2022-10-13T13:37:28.695Z,70.15
2022-10-13T13:39:57.815Z,69.93
2022-10-13T13:42:27.806Z,68.82
2022-10-13T13:44:56.286Z,69.17
2022-10-13T13:47:25.605Z,69.69
2022-10-13T13:49:57.142Z,69.71
2022-10-13T13:52:25.716Z,69.56
2022-10-13T13:54:56.217Z,70.16
2022-10-13T13:57:24.372Z,70.60
2022-10-13T13:59:52.656Z,70.68
2022-10-13T14:02:21.896Z,70.97
2022-10-13T14:04:50.003Z,70.89
2022-10-13T14:07:19.847Z,70.70
2022-10-13T14:09:48.654Z,70.45
2022-10-13T14:12:17.357Z,70.46
2022-10-13T14:14:46.008Z,70.72
2022-10-13T14:17:14.733Z,70.47
2022-10-13T14:19:43.163Z,70.04
2022-10-13T14:22:11.233Z,70.57
2022-10-13T14:24:39.746Z,70.86
2022-10-13T14:27:09.271Z,71.13
2022-10-13T14:29:37.603Z,71.57
2022-10-13T14:32:05.937Z,71.81
2022-10-13T14:34:34.069Z,72.18
2022-10-13T14:37:02.173Z,72.44
2022-10-13T14:39:30.469Z,72.52
2022-10-13T14:41:58.767Z,72.66
2022-10-13T14:44:26.916Z,72.99
2022-10-13T14:46:55.006Z,73.10
2022-10-13T14:49:23.187Z,73.33
2022-10-13T14:51:51.764Z,73.70
2022-10-13T14:54:19.912Z,74.22
2022-10-13T14:56:48.109Z,74.35
2022-10-13T14:59:16.290Z,74.82
2022-10-13T15:01:45.157Z,74.95
2022-10-13T15:04:13.376Z,75.11
2022-10-13T15:06:41.989Z,75.07
2022-10-13T15:09:10.614Z,75.07
2022-10-13T15:11:39.004Z,75.30
2022-10-13T15:14:07.846Z,75.94
2022-10-13T15:16:38.039Z,76.02
2022-10-13T15:19:06.270Z,76.04
2022-10-13T15:21:40.031Z,76.20
2022-10-13T15:24:11.641Z,75.91
2022-10-13T15:26:44.441Z,76.71
2022-10-13T15:29:13.922Z,76.42
2022-10-13T15:31:45.193Z,76.33
2022-10-13T15:34:14.919Z,76.28
2022-10-13T15:36:45.302Z,76.34
2022-10-13T15:39:14.439Z,76.95
2022-10-13T15:41:45.296Z,76.93
2022-10-13T15:44:13.442Z,77.11
2022-10-13T15:46:53.929Z,77.42
2022-10-13T15:49:29.903Z,77.70
2022-10-13T15:51:58.044Z,77.79
2022-10-13T15:54:26.232Z,77.86
2022-10-13T15:56:54.370Z,78.23
2022-10-13T15:59:22.458Z,78.28
2022-10-13T16:01:50.534Z,78.42
2022-10-13T16:04:18.612Z,78.63
2022-10-13T16:06:46.697Z,78.76
2022-10-13T16:09:14.787Z,78.82
2022-10-13T16:11:42.922Z,79.07
2022-10-13T16:14:11.039Z,79.42
2022-10-13T16:16:39.168Z,79.75
2022-10-13T16:19:07.362Z,79.61
2022-10-13T16:21:35.575Z,79.70
2022-10-13T16:24:06.008Z,79.79
2022-10-13T16:26:34.152Z,79.95
2022-10-13T16:29:02.301Z,80.38
2022-10-13T16:31:30.856Z,80.30
2022-10-13T16:33:59.020Z,80.55
2022-10-13T16:36:27.177Z,80.60
2022-10-13T16:38:55.414Z,80.52
2022-10-13T16:41:24.196Z,80.42
2022-10-13T16:43:52.334Z,80.26
2022-10-13T16:46:20.814Z,80.26
2022-10-13T16:48:48.954Z,80.40
2022-10-13T16:51:24.157Z,80.50
2022-10-13T16:54:01.150Z,79.89
2022-10-13T16:56:32.705Z,80.08
2022-10-13T16:59:02.066Z,80.15
2022-10-13T17:01:30.681Z,80.25
2022-10-13T17:03:59.207Z,80.71
2022-10-13T17:06:28.163Z,81.26
2022-10-13T17:09:00.781Z,81.47
2022-10-13T17:11:30.229Z,81.27
2022-10-13T17:13:58.757Z,81.12
2022-10-13T17:16:31.987Z,81.14
2022-10-13T17:19:00.291Z,81.44
2022-10-13T17:21:34.155Z,81.52
2022-10-13T17:24:02.275Z,81.07
2022-10-13T17:26:30.408Z,81.10
2022-10-13T17:28:58.558Z,81.48
2022-10-13T17:31:26.696Z,81.47
2022-10-13T17:33:54.981Z,81.48
2022-10-13T17:36:27.286Z,81.11
2022-10-13T17:38:56.434Z,81.13
2022-10-13T17:41:24.671Z,81.32
2022-10-13T17:43:52.846Z,81.57
2022-10-13T17:46:39.236Z,81.64
2022-10-13T17:49:10.324Z,82.00
2022-10-13T17:51:39.122Z,81.89
2022-10-13T17:54:10.273Z,82.29
2022-10-13T17:56:42.768Z,82.30
2022-10-13T17:59:10.994Z,82.08
2022-10-13T18:01:39.428Z,82.00
2022-10-13T18:04:15.453Z,82.44
2022-10-13T18:06:44.290Z,82.62
2022-10-13T18:09:14.019Z,82.87
2022-10-13T18:11:47.069Z,83.01
2022-10-13T18:14:21.627Z,83.10
2022-10-13T18:16:50.352Z,83.58
2022-10-13T18:19:18.603Z,83.13
2022-10-13T18:21:46.929Z,82.94
2022-10-13T18:24:15.068Z,83.27
2022-10-13T18:26:43.174Z,83.14
2022-10-13T18:29:11.840Z,83.42
2022-10-13T18:31:40.998Z,82.93
2022-10-13T18:34:12.559Z,83.34
2022-10-13T18:36:41.033Z,84.14
2022-10-13T18:39:13.427Z,83.81
2022-10-13T18:41:42.848Z,83.34
2022-10-13T18:44:11.003Z,83.09
2022-10-13T18:46:39.446Z,83.00
2022-10-13T18:49:08.741Z,83.63
2022-10-13T18:51:38.439Z,83.69
2022-10-13T18:54:06.859Z,83.34
2022-10-13T18:56:37.073Z,83.08
2022-10-13T18:59:06.189Z,83.13
2022-10-13T19:01:35.171Z,83.40
2022-10-13T19:04:03.494Z,84.39
2022-10-13T19:06:32.639Z,84.14
2022-10-13T19:09:02.642Z,84.12
2022-10-13T19:11:31.590Z,84.09
2022-10-13T19:14:00.303Z,84.85
2022-10-13T19:16:29.702Z,84.97
2022-10-13T19:18:58.223Z,84.40
2022-10-13T19:21:26.551Z,84.89
2022-10-13T19:23:55.297Z,85.13
2022-10-13T19:26:24.721Z,85.43
2022-10-13T19:28:56.927Z,85.62
2022-10-13T19:31:26.267Z,85.70
2022-10-13T19:33:54.888Z,84.73
2022-10-13T19:36:37.939Z,84.61
2022-10-13T19:39:08.700Z,86.08
2022-10-13T19:41:38.176Z,86.28
2022-10-13T19:44:06.317Z,85.76
2022-10-13T19:46:40.830Z,85.69
2022-10-13T19:49:09.521Z,85.71
2022-10-13T19:51:38.461Z,85.70
2022-10-13T19:54:06.634Z,86.03
2022-10-13T19:56:37.517Z,85.75
2022-10-13T19:59:09.127Z,85.37
2022-10-13T20:01:40.143Z,85.32
2022-10-13T20:04:14.508Z,85.30
2022-10-13T20:06:44.807Z,85.77
2022-10-13T20:09:13.407Z,85.50
2022-10-13T20:11:43.784Z,85.11
2022-10-13T20:14:12.144Z,84.28
2022-10-13T20:16:40.581Z,83.82
2022-10-13T20:19:11.184Z,84.08
2022-10-13T20:21:40.063Z,84.74
2022-10-13T20:24:12.502Z,85.65
2022-10-13T20:26:43.133Z,86.60
2022-10-13T20:29:13.483Z,86.70
2022-10-13T20:31:44.667Z,86.20
2022-10-13T20:34:12.879Z,85.98
2022-10-13T20:36:41.479Z,85.93
2022-10-13T20:39:12.592Z,85.92
2022-10-13T20:41:41.115Z,86.05
2022-10-13T20:44:12.509Z,86.04
2022-10-13T20:46:41.463Z,85.48
2022-10-13T20:49:11.489Z,85.32
2022-10-13T20:51:49.679Z,84.92
2022-10-13T20:54:18.412Z,85.15
2022-10-13T20:56:56.445Z,85.30
2022-10-13T20:59:25.440Z,86.00
2022-10-13T21:01:58.242Z,86.27
2022-10-13T21:04:32.060Z,86.85
2022-10-13T21:07:00.249Z,87.64
2022-10-13T21:09:28.447Z,88.14
2022-10-13T21:12:05.700Z,87.60
2022-10-13T21:14:57.143Z,88.00
2022-10-13T21:17:49.760Z,87.12
2022-10-13T21:20:21.565Z,86.75
2022-10-13T21:22:50.731Z,86.71
2022-10-13T21:25:19.291Z,87.21
2022-10-13T21:27:52.320Z,87.49
2022-10-13T21:30:20.599Z,86.94
2022-10-13T21:32:49.211Z,86.80
2022-10-13T21:35:26.802Z,86.92
2022-10-13T21:37:58.657Z,87.18
2022-10-13T21:40:26.979Z,87.14
2022-10-13T21:42:55.289Z,87.26
2022-10-13T21:45:23.945Z,87.39
2022-10-13T21:47:52.219Z,86.94
2022-10-13T21:50:20.415Z,87.34
2022-10-13T21:52:48.822Z,87.09
2022-10-13T21:55:17.166Z,87.81
2022-10-13T21:57:46.411Z,88.72
2022-10-13T22:00:15.214Z,88.76
2022-10-13T22:03:04.058Z,89.60
2022-10-13T22:05:42.641Z,90.08
2022-10-13T22:08:10.801Z,90.24
2022-10-13T22:10:38.917Z,90.23
2022-10-13T22:13:07.015Z,90.39
2022-10-13T22:15:35.256Z,90.52
2022-10-13T22:18:03.515Z,90.69
2022-10-13T22:20:35.716Z,90.52
2022-10-13T22:23:03.856Z,90.30
2022-10-13T22:25:31.956Z,88.76
2022-10-13T22:28:00.111Z,88.34
2022-10-13T22:30:28.195Z,88.71
2022-10-13T22:32:56.287Z,89.25
2022-10-13T22:35:24.420Z,89.87
2022-10-13T22:37:52.560Z,89.16
2022-10-13T22:40:20.644Z,89.07
2022-10-13T22:42:49.611Z,89.35
2022-10-13T22:45:17.717Z,89.85
2022-10-13T22:47:48.330Z,89.86
2022-10-13T22:50:16.456Z,90.08
2022-10-13T22:52:45.288Z,89.25
2022-10-13T22:55:13.434Z,88.51
2022-10-13T22:57:41.588Z,88.41
2022-10-13T23:00:10.299Z,88.81
2022-10-13T23:02:41.433Z,89.89
2022-10-13T23:05:09.649Z,89.47
2022-10-13T23:07:38.077Z,90.27
2022-10-13T23:10:06.528Z,89.88
2022-10-13T23:12:34.647Z,90.22
2022-10-13T23:15:02.857Z,90.11
2022-10-13T23:17:31.091Z,90.07
2022-10-13T23:19:59.273Z,90.48
2022-10-13T23:22:27.562Z,90.26
2022-10-13T23:24:57.537Z,90.56
2022-10-13T23:27:25.899Z,90.88
2022-10-13T23:29:53.968Z,90.64
2022-10-13T23:32:22.747Z,90.10
2022-10-13T23:34:50.862Z,90.33
2022-10-13T23:37:20.198Z,90.23
2022-10-13T23:39:48.573Z,89.59
2022-10-13T23:42:19.523Z,89.76
2022-10-13T23:44:47.723Z,89.99
2022-10-13T23:47:15.863Z,89.84
2022-10-13T23:49:44.080Z,89.20
2022-10-13T23:52:12.247Z,89.15
2022-10-13T23:54:40.347Z,89.37
2022-10-13T23:57:08.439Z,89.17
2022-10-13T23:59:36.983Z,88.69
